General Rafael Buelna International Airport
MMMZ : now visible

Airfield :











YOU CAN JOIN US ON...

 
LOGIN :

Register | Disclaimer

   EN    FR    IT 

 









Legend :    VFR   Marginal VFR   IFR   Intensive IFR   Very Intensive IFR
Visi :
Ceiling :
>= 8 km
>= 3000ft
5 to 8 km
1000 to 3000 ft
1500m to 5 km
500 to 1000 ft
800 to 1500m
200 to 500 ft
< 800m
< 200 ft
Symbols :   Thunderstorms  Fog  Heavy snow  Heavy precipitations  Wind > 20 kt







- Airport Elevation : 38 ft
- IATA code : MZT


MMMZ - General Rafael Buelna International

CURRENT METAR :
  • 210940Z 23004KT 10SM BKN240 26/25 A2985 RMK 8/002 HZY ISOL AC

EXPIRED METARs :
  • 210840Z 00000KT 10SM SCT090 BKN240 26/25 A2986 RMK SLP098 52003 954 8/072
  • 210740Z 08003KT 10SM SCT090 BKN240 26/25 A2985 RMK 8/072

TAF TAF MMMZ
Valid from the 21 at 06:00 until the 22 at 12:00 UTC


210531Z 2106/2212 06005KT P6SM SCT015 BKN250 TX30/2120Z TN24/2112Z
FM211600 16010KT P6SM SCT020 SCT080
FM220000 16010KT P6SM SCT020CB BKN080
TEMPO 2200/2204 5SM TSRA BKN020CB
No reported NOTAMs for that airfield.



MET'MAP, your aeronautical weather chart ! - Copyright ORBIFLY December 2007 - Disclaimer

ORBIFLY MET'MAP TEAM :

Programming & Development : Alexandra Zaïnal
Concept & Development : Baudouin d'Aumeries
Co-Development & Prog : Marc-Olivier Méhu
Technical & hardware support : Manuel Goepfert

Contact : metmap@orbifly.com




SOURCES & CREDITS :

   NOAA       Earth
Advisory